sensor_id;sensor_type;location;lat;lon;timestamp;pressure;altitude;pressure_sealevel;temperature;humidity
59103;BME280;43999;51.660;5.616;2023-01-25T00:00:25;103529.41;;;0.22;100.00
59103;BME280;43999;51.660;5.616;2023-01-25T00:02:54;103533.69;;;0.22;100.00
59103;BME280;43999;51.660;5.616;2023-01-25T00:05:24;103529.38;;;0.21;100.00
59103;BME280;43999;51.660;5.616;2023-01-25T00:07:56;103528.56;;;0.23;100.00
59103;BME280;43999;51.660;5.616;2023-01-25T00:10:33;103527.75;;;0.24;100.00
59103;BME280;43999;51.660;5.616;2023-01-25T00:13:08;103531.19;;;0.25;100.00
59103;BME280;43999;51.660;5.616;2023-01-25T00:15:37;103529.47;;;0.24;100.00
59103;BME280;43999;51.660;5.616;2023-01-25T00:18:09;103520.78;;;0.22;100.00
59103;BME280;43999;51.660;5.616;2023-01-25T00:20:41;103523.41;;;0.23;100.00
59103;BME280;43999;51.660;5.616;2023-01-25T00:23:13;103526.00;;;0.23;100.00
59103;BME280;43999;51.660;5.616;2023-01-25T00:25:41;103517.38;;;0.23;100.00
59103;BME280;43999;51.660;5.616;2023-01-25T00:28:09;103525.03;;;0.20;100.00
59103;BME280;43999;51.660;5.616;2023-01-25T00:30:38;103523.25;;;0.18;100.00
59103;BME280;43999;51.660;5.616;2023-01-25T00:35:48;103516.28;;;0.14;100.00
59103;BME280;43999;51.660;5.616;2023-01-25T00:38:33;103510.13;;;0.11;100.00
59103;BME280;43999;51.660;5.616;2023-01-25T00:41:01;103509.19;;;0.09;100.00
59103;BME280;43999;51.660;5.616;2023-01-25T00:43:30;103503.19;;;0.08;100.00
59103;BME280;43999;51.660;5.616;2023-01-25T00:46:01;103504.00;;;0.07;100.00
59103;BME280;43999;51.660;5.616;2023-01-25T00:48:30;103510.88;;;0.07;100.00
59103;BME280;43999;51.660;5.616;2023-01-25T00:51:01;103508.13;;;0.02;100.00
59103;BME280;43999;51.660;5.616;2023-01-25T00:53:46;103498.53;;;-0.02;100.00
59103;BME280;43999;51.660;5.616;2023-01-25T00:56:15;103502.81;;;-0.03;100.00
59103;BME280;43999;51.660;5.616;2023-01-25T00:58:46;103504.59;;;-0.02;100.00
59103;BME280;43999;51.660;5.616;2023-01-25T01:01:17;103503.75;;;-0.01;100.00
59103;BME280;43999;51.660;5.616;2023-01-25T01:03:45;103499.47;;;0.00;100.00
59103;BME280;43999;51.660;5.616;2023-01-25T01:06:13;103497.63;;;-0.04;100.00
59103;BME280;43999;51.660;5.616;2023-01-25T01:08:51;103501.81;;;-0.08;100.00
59103;BME280;43999;51.660;5.616;2023-01-25T01:11:25;103496.59;;;-0.09;100.00
59103;BME280;43999;51.660;5.616;2023-01-25T01:13:55;103502.56;;;-0.10;100.00
59103;BME280;43999;51.660;5.616;2023-01-25T01:16:24;103498.28;;;-0.10;100.00
59103;BME280;43999;51.660;5.616;2023-01-25T01:19:02;103494.84;;;-0.10;100.00
59103;BME280;43999;51.660;5.616;2023-01-25T01:21:35;103497.38;;;-0.12;100.00
59103;BME280;43999;51.660;5.616;2023-01-25T01:24:12;103486.13;;;-0.14;100.00
59103;BME280;43999;51.660;5.616;2023-01-25T01:26:40;103490.44;;;-0.13;100.00
59103;BME280;43999;51.660;5.616;2023-01-25T01:29:24;103498.22;;;-0.11;100.00
59103;BME280;43999;51.660;5.616;2023-01-25T01:31:52;103498.28;;;-0.10;100.00
59103;BME280;43999;51.660;5.616;2023-01-25T01:34:29;103494.06;;;-0.08;100.00
59103;BME280;43999;51.660;5.616;2023-01-25T01:37:02;103491.50;;;-0.08;100.00
59103;BME280;43999;51.660;5.616;2023-01-25T01:39:31;103505.25;;;-0.07;100.00
59103;BME280;43999;51.660;5.616;2023-01-25T01:42:08;103491.50;;;-0.08;100.00
59103;BME280;43999;51.660;5.616;2023-01-25T01:44:52;103495.75;;;-0.08;100.00
59103;BME280;43999;51.660;5.616;2023-01-25T01:47:41;103492.22;;;-0.12;100.00
59103;BME280;43999;51.660;5.616;2023-01-25T01:50:29;103492.31;;;-0.09;100.00
59103;BME280;43999;51.660;5.616;2023-01-25T01:53:05;103494.03;;;-0.09;100.00
59103;BME280;43999;51.660;5.616;2023-01-25T01:55:40;103489.63;;;-0.12;100.00
59103;BME280;43999;51.660;5.616;2023-01-25T01:58:26;103494.88;;;-0.09;100.00
59103;BME280;43999;51.660;5.616;2023-01-25T02:00:59;103493.19;;;-0.08;100.00
59103;BME280;43999;51.660;5.616;2023-01-25T02:03:40;103490.66;;;-0.07;100.00
59103;BME280;43999;51.660;5.616;2023-01-25T02:06:21;103494.78;;;-0.12;100.00
59103;BME280;43999;51.660;5.616;2023-01-25T02:08:54;103494.78;;;-0.12;100.00
59103;BME280;43999;51.660;5.616;2023-01-25T02:11:25;103490.25;;;-0.19;100.00
59103;BME280;43999;51.660;5.616;2023-01-25T02:13:59;103487.66;;;-0.19;100.00
59103;BME280;43999;51.660;5.616;2023-01-25T02:16:41;103488.56;;;-0.19;100.00
59103;BME280;43999;51.660;5.616;2023-01-25T02:22:08;103480.78;;;-0.20;100.00
59103;BME280;43999;51.660;5.616;2023-01-25T02:24:49;103477.25;;;-0.22;100.00
59103;BME280;43999;51.660;5.616;2023-01-25T02:27:26;103481.66;;;-0.20;100.00
59103;BME280;43999;51.660;5.616;2023-01-25T02:29:58;103470.53;;;-0.19;100.00
59103;BME280;43999;51.660;5.616;2023-01-25T02:32:28;103472.25;;;-0.17;100.00
59103;BME280;43999;51.660;5.616;2023-01-25T02:34:57;103476.53;;;-0.18;100.00
59103;BME280;43999;51.660;5.616;2023-01-25T02:37:26;103471.34;;;-0.20;100.00
59103;BME280;43999;51.660;5.616;2023-01-25T02:39:55;103466.19;;;-0.20;100.00
59103;BME280;43999;51.660;5.616;2023-01-25T02:42:29;103454.84;;;-0.25;100.00
59103;BME280;43999;51.660;5.616;2023-01-25T02:45:02;103463.59;;;-0.20;100.00
59103;BME280;43999;51.660;5.616;2023-01-25T02:47:38;103455.06;;;-0.19;100.00
59103;BME280;43999;51.660;5.616;2023-01-25T02:50:06;103453.31;;;-0.20;100.00
59103;BME280;43999;51.660;5.616;2023-01-25T02:52:34;103460.16;;;-0.20;100.00
59103;BME280;43999;51.660;5.616;2023-01-25T02:55:06;103460.22;;;-0.19;100.00
59103;BME280;43999;51.660;5.616;2023-01-25T02:57:39;103464.38;;;-0.22;100.00
59103;BME280;43999;51.660;5.616;2023-01-25T03:00:08;103460.00;;;-0.25;100.00
59103;BME280;43999;51.660;5.616;2023-01-25T03:02:36;103457.38;;;-0.26;100.00
59103;BME280;43999;51.660;5.616;2023-01-25T03:05:07;103459.06;;;-0.27;100.00
59103;BME280;43999;51.660;5.616;2023-01-25T03:07:36;103454.75;;;-0.28;100.00
59103;BME280;43999;51.660;5.616;2023-01-25T03:10:08;103455.50;;;-0.30;100.00
59103;BME280;43999;51.660;5.616;2023-01-25T03:12:47;103456.44;;;-0.28;100.00
59103;BME280;43999;51.660;5.616;2023-01-25T03:15:22;103446.13;;;-0.28;100.00
59103;BME280;43999;51.660;5.616;2023-01-25T03:17:58;103445.25;;;-0.29;100.00
59103;BME280;43999;51.660;5.616;2023-01-25T03:20:26;103453.91;;;-0.27;100.00
59103;BME280;43999;51.660;5.616;2023-01-25T03:22:57;103444.34;;;-0.31;100.00
59103;BME280;43999;51.660;5.616;2023-01-25T03:25:28;103440.88;;;-0.31;100.00
59103;BME280;43999;51.660;5.616;2023-01-25T03:28:06;103433.16;;;-0.31;100.00
59103;BME280;43999;51.660;5.616;2023-01-25T03:30:35;103423.72;;;-0.31;100.00
59103;BME280;43999;51.660;5.616;2023-01-25T03:33:16;103425.50;;;-0.28;100.00
59103;BME280;43999;51.660;5.616;2023-01-25T03:35:44;103425.47;;;-0.30;100.00
59103;BME280;43999;51.660;5.616;2023-01-25T03:38:18;103421.22;;;-0.29;100.00
59103;BME280;43999;51.660;5.616;2023-01-25T03:40:49;103416.06;;;-0.29;100.00
59103;BME280;43999;51.660;5.616;2023-01-25T03:43:24;103419.50;;;-0.29;100.00
59103;BME280;43999;51.660;5.616;2023-01-25T03:45:57;103403.22;;;-0.28;100.00
59103;BME280;43999;51.660;5.616;2023-01-25T03:48:31;103412.63;;;-0.28;100.00
59103;BME280;43999;51.660;5.616;2023-01-25T03:51:02;103408.31;;;-0.29;100.00
59103;BME280;43999;51.660;5.616;2023-01-25T03:53:36;103410.84;;;-0.31;100.00
59103;BME280;43999;51.660;5.616;2023-01-25T03:56:15;103421.16;;;-0.31;100.00
59103;BME280;43999;51.660;5.616;2023-01-25T03:59:19;103422.84;;;-0.31;100.00
59103;BME280;43999;51.660;5.616;2023-01-25T04:02:05;103425.38;;;-0.33;100.00
59103;BME280;43999;51.660;5.616;2023-01-25T04:04:39;103425.25;;;-0.36;100.00
59103;BME280;43999;51.660;5.616;2023-01-25T04:07:19;103423.59;;;-0.35;100.00
59103;BME280;43999;51.660;5.616;2023-01-25T04:09:55;103416.72;;;-0.35;100.00
59103;BME280;43999;51.660;5.616;2023-01-25T04:12:25;103414.13;;;-0.35;100.00
59103;BME280;43999;51.660;5.616;2023-01-25T04:14:52;103414.13;;;-0.35;100.00
59103;BME280;43999;51.660;5.616;2023-01-25T04:17:22;103403.84;;;-0.35;100.00
59103;BME280;43999;51.660;5.616;2023-01-25T04:20:23;103402.97;;;-0.35;100.00
59103;BME280;43999;51.660;5.616;2023-01-25T04:22:54;103396.06;;;-0.37;100.00
59103;BME280;43999;51.660;5.616;2023-01-25T04:25:26;103396.00;;;-0.38;100.00
59103;BME280;43999;51.660;5.616;2023-01-25T04:27:54;103395.84;;;-0.43;100.00
59103;BME280;43999;51.660;5.616;2023-01-25T04:30:23;103396.56;;;-0.47;100.00
59103;BME280;43999;51.660;5.616;2023-01-25T04:32:52;103399.88;;;-0.51;100.00
59103;BME280;43999;51.660;5.616;2023-01-25T04:35:26;103390.41;;;-0.52;100.00
59103;BME280;43999;51.660;5.616;2023-01-25T04:37:58;103397.22;;;-0.54;100.00
59103;BME280;43999;51.660;5.616;2023-01-25T04:40:35;103398.88;;;-0.55;100.00
59103;BME280;43999;51.660;5.616;2023-01-25T04:43:03;103396.25;;;-0.56;100.00
59103;BME280;43999;51.660;5.616;2023-01-25T04:45:38;103385.97;;;-0.56;100.00
59103;BME280;43999;51.660;5.616;2023-01-25T04:48:15;103384.22;;;-0.57;100.00
59103;BME280;43999;51.660;5.616;2023-01-25T04:50:51;103377.31;;;-0.58;100.00
59103;BME280;43999;51.660;5.616;2023-01-25T04:53:23;103380.66;;;-0.61;100.00
59103;BME280;43999;51.660;5.616;2023-01-25T04:55:53;103371.84;;;-0.67;100.00
59103;BME280;43999;51.660;5.616;2023-01-25T04:58:24;103375.19;;;-0.70;100.00
59103;BME280;43999;51.660;5.616;2023-01-25T05:01:03;103377.72;;;-0.72;100.00
59103;BME280;43999;51.660;5.616;2023-01-25T05:03:33;103375.25;;;-0.68;100.00
59103;BME280;43999;51.660;5.616;2023-01-25T05:06:20;103371.84;;;-0.67;100.00
59103;BME280;43999;51.660;5.616;2023-01-25T05:08:51;103369.34;;;-0.66;100.00
59103;BME280;43999;51.660;5.616;2023-01-25T05:11:21;103375.41;;;-0.64;100.00
59103;BME280;43999;51.660;5.616;2023-01-25T05:13:58;103366.09;;;-0.60;100.00
59103;BME280;43999;51.660;5.616;2023-01-25T05:16:35;103368.66;;;-0.60;100.00
59103;BME280;43999;51.660;5.616;2023-01-25T05:19:04;103366.19;;;-0.57;100.00
59103;BME280;43999;51.660;5.616;2023-01-25T05:21:49;103361.91;;;-0.57;100.00
59103;BME280;43999;51.660;5.616;2023-01-25T05:24:34;103354.81;;;-0.64;100.00
59103;BME280;43999;51.660;5.616;2023-01-25T05:27:07;103364.28;;;-0.63;100.00
59103;BME280;43999;51.660;5.616;2023-01-25T05:29:58;103352.22;;;-0.64;100.00
59103;BME280;43999;51.660;5.616;2023-01-25T05:33:02;103357.38;;;-0.64;100.00
59103;BME280;43999;51.660;5.616;2023-01-25T05:35:43;103357.28;;;-0.67;100.00
59103;BME280;43999;51.660;5.616;2023-01-25T05:38:14;103355.53;;;-0.68;100.00
59103;BME280;43999;51.660;5.616;2023-01-25T05:40:44;103358.06;;;-0.69;100.00
59103;BME280;43999;51.660;5.616;2023-01-25T05:43:15;103356.31;;;-0.70;100.00
59103;BME280;43999;51.660;5.616;2023-01-25T05:45:54;103355.38;;;-0.73;100.00
59103;BME280;43999;51.660;5.616;2023-01-25T05:48:29;103357.84;;;-0.76;100.00
59103;BME280;43999;51.660;5.616;2023-01-25T05:50:58;103358.69;;;-0.77;100.00
59103;BME280;43999;51.660;5.616;2023-01-25T05:53:30;103356.03;;;-0.78;100.00
59103;BME280;43999;51.660;5.616;2023-01-25T05:56:16;103352.66;;;-0.77;100.00
59103;BME280;43999;51.660;5.616;2023-01-25T05:59:01;103352.75;;;-0.74;100.00
59103;BME280;43999;51.660;5.616;2023-01-25T06:01:39;103353.63;;;-0.74;100.00
59103;BME280;43999;51.660;5.616;2023-01-25T06:04:17;103357.06;;;-0.73;100.00
59103;BME280;43999;51.660;5.616;2023-01-25T06:06:46;103363.22;;;-0.69;100.00
59103;BME280;43999;51.660;5.616;2023-01-25T06:09:18;103357.00;;;-0.75;100.00
59103;BME280;43999;51.660;5.616;2023-01-25T06:11:47;103354.44;;;-0.75;100.00
59103;BME280;43999;51.660;5.616;2023-01-25T06:14:29;103349.34;;;-0.73;100.00
59103;BME280;43999;51.660;5.616;2023-01-25T06:17:08;103355.38;;;-0.73;100.00
59103;BME280;43999;51.660;5.616;2023-01-25T06:20:12;103357.97;;;-0.73;100.00
59103;BME280;43999;51.660;5.616;2023-01-25T06:23:13;103355.44;;;-0.71;100.00
59103;BME280;43999;51.660;5.616;2023-01-25T06:25:46;103351.97;;;-0.72;100.00
59103;BME280;43999;51.660;5.616;2023-01-25T06:28:22;103348.72;;;-0.66;100.00
59103;BME280;43999;51.660;5.616;2023-01-25T06:31:02;103349.53;;;-0.67;100.00
59103;BME280;43999;51.660;5.616;2023-01-25T06:33:30;103350.41;;;-0.68;100.00
59103;BME280;43999;51.660;5.616;2023-01-25T06:36:21;103352.97;;;-0.68;100.00
59103;BME280;43999;51.660;5.616;2023-01-25T06:42:06;103340.75;;;-0.74;100.00
59103;BME280;43999;51.660;5.616;2023-01-25T06:44:34;103348.47;;;-0.74;100.00
59103;BME280;43999;51.660;5.616;2023-01-25T06:47:09;103347.66;;;-0.73;100.00
59103;BME280;43999;51.660;5.616;2023-01-25T06:49:44;103348.56;;;-0.70;100.00
59103;BME280;43999;51.660;5.616;2023-01-25T06:52:14;103346.88;;;-0.70;100.00
59103;BME280;43999;51.660;5.616;2023-01-25T06:54:50;103339.94;;;-0.73;100.00
59103;BME280;43999;51.660;5.616;2023-01-25T06:57:33;103346.75;;;-0.73;100.00
59103;BME280;43999;51.660;5.616;2023-01-25T07:00:13;103345.94;;;-0.72;100.00
59103;BME280;43999;51.660;5.616;2023-01-25T07:02:45;103344.25;;;-0.72;100.00
59103;BME280;43999;51.660;5.616;2023-01-25T07:05:22;103347.72;;;-0.71;100.00
59103;BME280;43999;51.660;5.616;2023-01-25T07:07:58;103342.56;;;-0.71;100.00
59103;BME280;43999;51.660;5.616;2023-01-25T07:10:29;103345.25;;;-0.68;100.00
59103;BME280;43999;51.660;5.616;2023-01-25T07:13:19;103347.81;;;-0.68;100.00
59103;BME280;43999;51.660;5.616;2023-01-25T07:16:12;103349.50;;;-0.68;100.00
59103;BME280;43999;51.660;5.616;2023-01-25T07:18:50;103344.28;;;-0.70;100.00
59103;BME280;43999;51.660;5.616;2023-01-25T07:21:39;103346.75;;;-0.73;100.00
59103;BME280;43999;51.660;5.616;2023-01-25T07:24:15;103347.56;;;-0.76;100.00
59103;BME280;43999;51.660;5.616;2023-01-25T07:26:57;103344.03;;;-0.78;100.00
59103;BME280;43999;51.660;5.616;2023-01-25T07:29:41;103338.78;;;-0.81;100.00
59103;BME280;43999;51.660;5.616;2023-01-25T07:32:35;103343.03;;;-0.83;100.00
59103;BME280;43999;51.660;5.616;2023-01-25T07:35:17;103335.13;;;-0.87;100.00
59103;BME280;43999;51.660;5.616;2023-01-25T07:37:48;103335.84;;;-0.92;100.00
59103;BME280;43999;51.660;5.616;2023-01-25T07:40:42;103319.59;;;-0.91;100.00
59103;BME280;43999;51.660;5.616;2023-01-25T07:43:15;103324.75;;;-0.91;100.00
59103;BME280;43999;51.660;5.616;2023-01-25T07:45:47;103311.81;;;-0.92;100.00
59103;BME280;43999;51.660;5.616;2023-01-25T07:48:20;103323.03;;;-0.90;100.00
59103;BME280;43999;51.660;5.616;2023-01-25T07:51:02;103320.41;;;-0.92;100.00
59103;BME280;43999;51.660;5.616;2023-01-25T07:54:02;103327.25;;;-0.92;100.00
59103;BME280;43999;51.660;5.616;2023-01-25T07:56:36;103326.50;;;-0.89;100.00
59103;BME280;43999;51.660;5.616;2023-01-25T07:59:06;103330.84;;;-0.87;100.00
59103;BME280;43999;51.660;5.616;2023-01-25T08:01:44;103327.53;;;-0.84;100.00
59103;BME280;43999;51.660;5.616;2023-01-25T08:04:29;103331.06;;;-0.81;100.00
59103;BME280;43999;51.660;5.616;2023-01-25T08:07:34;103329.28;;;-0.83;100.00
59103;BME280;43999;51.660;5.616;2023-01-25T08:10:20;103312.94;;;-0.84;100.00
59103;BME280;43999;51.660;5.616;2023-01-25T08:13:06;103318.09;;;-0.84;100.00
59103;BME280;43999;51.660;5.616;2023-01-25T08:15:55;103318.97;;;-0.83;100.00
59103;BME280;43999;51.660;5.616;2023-01-25T08:18:30;103318.97;;;-0.83;100.00
59103;BME280;43999;51.660;5.616;2023-01-25T08:21:08;103315.50;;;-0.84;100.00
59103;BME280;43999;51.660;5.616;2023-01-25T08:23:39;103318.03;;;-0.85;100.00
59103;BME280;43999;51.660;5.616;2023-01-25T08:26:15;103311.22;;;-0.85;100.00
59103;BME280;43999;51.660;5.616;2023-01-25T08:28:45;103311.22;;;-0.85;100.00
59103;BME280;43999;51.660;5.616;2023-01-25T08:31:20;103312.13;;;-0.83;100.00
59103;BME280;43999;51.660;5.616;2023-01-25T08:34:01;103307.13;;;-0.78;100.00
59103;BME280;43999;51.660;5.616;2023-01-25T08:36:31;103309.81;;;-0.75;100.00
59103;BME280;43999;51.660;5.616;2023-01-25T08:39:21;103306.47;;;-0.73;100.00
59103;BME280;43999;51.660;5.616;2023-01-25T08:41:52;103307.34;;;-0.72;100.00
59103;BME280;43999;51.660;5.616;2023-01-25T08:44:24;103310.88;;;-0.68;100.00
59103;BME280;43999;51.660;5.616;2023-01-25T08:46:56;103318.66;;;-0.67;100.00
59103;BME280;43999;51.660;5.616;2023-01-25T08:49:23;103309.19;;;-0.68;100.00
59103;BME280;43999;51.660;5.616;2023-01-25T08:52:05;103308.19;;;-0.72;100.00
59103;BME280;43999;51.660;5.616;2023-01-25T08:54:34;103310.56;;;-0.78;100.00
59103;BME280;43999;51.660;5.616;2023-01-25T08:57:05;103299.31;;;-0.81;100.00
59103;BME280;43999;51.660;5.616;2023-01-25T08:59:36;103295.75;;;-0.85;100.00
59103;BME280;43999;51.660;5.616;2023-01-25T09:02:08;103292.28;;;-0.85;100.00
59103;BME280;43999;51.660;5.616;2023-01-25T09:04:44;103285.53;;;-0.83;100.00
59103;BME280;43999;51.660;5.616;2023-01-25T09:07:36;103286.38;;;-0.83;100.00
59103;BME280;43999;51.660;5.616;2023-01-25T09:10:20;103285.53;;;-0.83;100.00
59103;BME280;43999;51.660;5.616;2023-01-25T09:12:53;103287.28;;;-0.81;100.00
59103;BME280;43999;51.660;5.616;2023-01-25T09:15:29;103274.22;;;-0.87;100.00
59103;BME280;43999;51.660;5.616;2023-01-25T09:18:09;103285.47;;;-0.85;100.00
59103;BME280;43999;51.660;5.616;2023-01-25T09:20:40;103288.97;;;-0.83;100.00
59103;BME280;43999;51.660;5.616;2023-01-25T09:23:08;103281.28;;;-0.81;100.00
59103;BME280;43999;51.660;5.616;2023-01-25T09:25:59;103279.56;;;-0.81;100.00
59103;BME280;43999;51.660;5.616;2023-01-25T09:28:33;103284.88;;;-0.76;100.00
59103;BME280;43999;51.660;5.616;2023-01-25T09:31:05;103285.03;;;-0.72;100.00
59103;BME280;43999;51.660;5.616;2023-01-25T09:34:11;103276.47;;;-0.70;100.00
59103;BME280;43999;51.660;5.616;2023-01-25T09:36:48;103280.88;;;-0.68;100.00
59103;BME280;43999;51.660;5.616;2023-01-25T09:39:25;103282.59;;;-0.67;100.00
59103;BME280;43999;51.660;5.616;2023-01-25T09:42:29;103270.63;;;-0.66;100.00
59103;BME280;43999;51.660;5.616;2023-01-25T09:48:19;103277.41;;;-0.68;100.00
59103;BME280;43999;51.660;5.616;2023-01-25T09:54:28;103278.03;;;-0.76;100.00
59103;BME280;43999;51.660;5.616;2023-01-25T09:57:04;103274.56;;;-0.76;100.00
59103;BME280;43999;51.660;5.616;2023-01-25T09:59:39;103281.34;;;-0.80;100.00
59103;BME280;43999;51.660;5.616;2023-01-25T10:05:13;103274.31;;;-0.84;100.00
59103;BME280;43999;51.660;5.616;2023-01-25T10:10:54;103263.94;;;-0.87;100.00
59103;BME280;43999;51.660;5.616;2023-01-25T10:13:35;103258.88;;;-0.84;100.00
59103;BME280;43999;51.660;5.616;2023-01-25T10:16:11;103257.16;;;-0.85;100.00
59103;BME280;43999;51.660;5.616;2023-01-25T10:21:48;103254.69;;;-0.82;100.00
59103;BME280;43999;51.660;5.616;2023-01-25T10:27:31;103254.56;;;-0.85;100.00
59103;BME280;43999;51.660;5.616;2023-01-25T10:30:57;103258.81;;;-0.85;100.00
59103;BME280;43999;51.660;5.616;2023-01-25T10:33:27;103255.50;;;-0.83;100.00
59103;BME280;43999;51.660;5.616;2023-01-25T10:36:03;103255.53;;;-0.81;100.00
59103;BME280;43999;51.660;5.616;2023-01-25T10:38:55;103241.84;;;-0.80;100.00
59103;BME280;43999;51.660;5.616;2023-01-25T10:41:45;103229.75;;;-0.83;100.00
59103;BME280;43999;51.660;5.616;2023-01-25T10:44:15;103224.59;;;-0.83;100.00
59103;BME280;43999;51.660;5.616;2023-01-25T10:47:26;103216.88;;;-0.83;100.00
59103;BME280;43999;51.660;5.616;2023-01-25T10:50:04;103214.31;;;-0.83;100.00
59103;BME280;43999;51.660;5.616;2023-01-25T10:52:38;103212.63;;;-0.81;100.00
59103;BME280;43999;51.660;5.616;2023-01-25T10:58:03;103197.34;;;-0.76;100.00
59103;BME280;43999;51.660;5.616;2023-01-25T11:00:51;103179.31;;;-0.76;100.00
59103;BME280;43999;51.660;5.616;2023-01-25T11:03:20;103177.59;;;-0.77;100.00
59103;BME280;43999;51.660;5.616;2023-01-25T11:06:03;103178.44;;;-0.77;100.00
59103;BME280;43999;51.660;5.616;2023-01-25T11:08:50;103170.72;;;-0.77;100.00
59103;BME280;43999;51.660;5.616;2023-01-25T11:11:42;103163.06;;;-0.75;100.00
59103;BME280;43999;51.660;5.616;2023-01-25T11:14:25;103157.91;;;-0.75;100.00
59103;BME280;43999;51.660;5.616;2023-01-25T11:17:29;103151.97;;;-0.73;100.00
59103;BME280;43999;51.660;5.616;2023-01-25T11:20:20;103149.59;;;-0.66;100.00
59103;BME280;43999;51.660;5.616;2023-01-25T11:22:58;103142.81;;;-0.63;100.00
59103;BME280;43999;51.660;5.616;2023-01-25T11:25:47;103128.06;;;-0.68;100.00
59103;BME280;43999;51.660;5.616;2023-01-25T11:28:24;103121.09;;;-0.73;100.00
59103;BME280;43999;51.660;5.616;2023-01-25T11:30:58;103125.28;;;-0.75;100.00
59103;BME280;43999;51.660;5.616;2023-01-25T11:33:45;103120.16;;;-0.75;100.00
59103;BME280;43999;51.660;5.616;2023-01-25T11:36:36;103110.84;;;-0.71;100.00
59103;BME280;43999;51.660;5.616;2023-01-25T11:39:48;103100.53;;;-0.71;100.00
59103;BME280;43999;51.660;5.616;2023-01-25T11:42:52;103096.97;;;-0.75;100.00
59103;BME280;43999;51.660;5.616;2023-01-25T12:07:32;103038.03;;;-0.65;100.00
59103;BME280;43999;51.660;5.616;2023-01-25T12:30:43;102994.97;;;-0.71;100.00
59103;BME280;43999;51.660;5.616;2023-01-25T12:41:39;102969.28;;;-0.69;100.00
59103;BME280;43999;51.660;5.616;2023-01-25T12:44:44;102949.38;;;-0.75;100.00
59103;BME280;43999;51.660;5.616;2023-01-25T12:47:52;102951.13;;;-0.74;100.00
59103;BME280;43999;51.660;5.616;2023-01-25T12:50:47;102939.00;;;-0.78;100.00
59103;BME280;43999;51.660;5.616;2023-01-25T12:53:44;102932.03;;;-0.81;100.00
59103;BME280;43999;51.660;5.616;2023-01-25T13:09:14;102927.25;;;-0.67;100.00
59103;BME280;43999;51.660;5.616;2023-01-25T13:11:49;102917.81;;;-0.68;100.00
59103;BME280;43999;51.660;5.616;2023-01-25T13:14:28;102902.28;;;-0.71;100.00
59103;BME280;43999;51.660;5.616;2023-01-25T13:17:42;102896.13;;;-0.76;100.00
59103;BME280;43999;51.660;5.616;2023-01-25T13:23:35;102895.19;;;-0.80;100.00
59103;BME280;43999;51.660;5.616;2023-01-25T13:29:01;102899.63;;;-0.74;100.00
59103;BME280;43999;51.660;5.616;2023-01-25T13:31:44;102897.78;;;-0.78;100.00
59103;BME280;43999;51.660;5.616;2023-01-25T13:37:37;102868.75;;;-0.74;100.00
59103;BME280;43999;51.660;5.616;2023-01-25T13:40:37;102865.31;;;-0.73;100.00
59103;BME280;43999;51.660;5.616;2023-01-25T13:43:19;102860.09;;;-0.76;100.00
59103;BME280;43999;51.660;5.616;2023-01-25T13:45:56;102872.91;;;-0.78;100.00
59103;BME280;43999;51.660;5.616;2023-01-25T13:49:00;102866.09;;;-0.77;100.00
59103;BME280;43999;51.660;5.616;2023-01-25T13:51:32;102849.72;;;-0.79;100.00
59103;BME280;43999;51.660;5.616;2023-01-25T13:54:15;102851.50;;;-0.77;100.00
59103;BME280;43999;51.660;5.616;2023-01-25T13:57:06;102848.81;;;-0.81;100.00
59103;BME280;43999;51.660;5.616;2023-01-25T13:59:42;102835.84;;;-0.84;100.00
59103;BME280;43999;51.660;5.616;2023-01-25T14:02:21;102840.06;;;-0.88;100.00
59103;BME280;43999;51.660;5.616;2023-01-25T14:04:54;102839.09;;;-0.92;100.00
59103;BME280;43999;51.660;5.616;2023-01-25T14:07:34;102846.94;;;-0.87;100.00
59103;BME280;43999;51.660;5.616;2023-01-25T14:10:25;102844.38;;;-0.87;100.00
59103;BME280;43999;51.660;5.616;2023-01-25T14:13:11;102856.44;;;-0.84;100.00
59103;BME280;43999;51.660;5.616;2023-01-25T14:15:41;102850.47;;;-0.83;100.00
59103;BME280;43999;51.660;5.616;2023-01-25T14:18:21;102850.47;;;-0.83;100.00
59103;BME280;43999;51.660;5.616;2023-01-25T14:21:38;102850.41;;;-0.86;100.00
59103;BME280;43999;51.660;5.616;2023-01-25T14:24:10;102853.88;;;-0.84;100.00
59103;BME280;43999;51.660;5.616;2023-01-25T14:27:25;102853.06;;;-0.83;100.00
59103;BME280;43999;51.660;5.616;2023-01-25T14:29:56;102846.94;;;-0.87;100.00
59103;BME280;43999;51.660;5.616;2023-01-25T14:32:28;102851.16;;;-0.91;100.00
59103;BME280;43999;51.660;5.616;2023-01-25T14:35:09;102844.25;;;-0.92;100.00
59103;BME280;43999;51.660;5.616;2023-01-25T14:38:34;102843.22;;;-0.98;100.00
59103;BME280;43999;51.660;5.616;2023-01-25T14:41:31;102838.03;;;-1.00;100.00
59103;BME280;43999;51.660;5.616;2023-01-25T14:44:15;102830.19;;;-1.04;100.00
59103;BME280;43999;51.660;5.616;2023-01-25T14:47:30;102822.41;;;-1.08;100.00
59103;BME280;43999;51.660;5.616;2023-01-25T14:50:38;102821.50;;;-1.10;100.00
59103;BME280;43999;51.660;5.616;2023-01-25T14:53:22;102822.34;;;-1.09;100.00
59103;BME280;43999;51.660;5.616;2023-01-25T14:56:36;102811.19;;;-1.10;100.00
59103;BME280;43999;51.660;5.616;2023-01-25T14:59:49;102812.97;;;-1.07;100.00
59103;BME280;43999;51.660;5.616;2023-01-25T15:02:25;102811.31;;;-1.05;100.00
59103;BME280;43999;51.660;5.616;2023-01-25T15:05:22;102811.94;;;-1.14;100.00
59103;BME280;43999;51.660;5.616;2023-01-25T15:08:35;102811.81;;;-1.18;100.00
59103;BME280;43999;51.660;5.616;2023-01-25T15:11:33;102805.91;;;-1.16;100.00
59103;BME280;43999;51.660;5.616;2023-01-25T15:14:47;102806.59;;;-1.21;100.00
59103;BME280;43999;51.660;5.616;2023-01-25T15:17:44;102797.84;;;-1.28;100.00
59103;BME280;43999;51.660;5.616;2023-01-25T15:20:42;102805.56;;;-1.28;100.00
59103;BME280;43999;51.660;5.616;2023-01-25T15:23:26;102799.53;;;-1.29;100.00
59103;BME280;43999;51.660;5.616;2023-01-25T15:26:41;102805.47;;;-1.31;100.00